sensor_id;sensor_type;location;lat;lon;timestamp;P1;durP1;ratioP1;P2;durP2;ratioP2
3975;SDS011;2002;48.812;9.180;2022-09-09T00:02:19;1.00;;;0.90;;
3975;SDS011;2002;48.812;9.180;2022-09-09T00:05:34;0.70;;;0.60;;
3975;SDS011;2002;48.812;9.180;2022-09-09T00:07:49;0.70;;;0.70;;
3975;SDS011;2002;48.812;9.180;2022-09-09T00:10:20;0.73;;;0.73;;
3975;SDS011;2002;48.812;9.180;2022-09-09T00:15:30;1.07;;;0.70;;
3975;SDS011;2002;48.812;9.180;2022-09-09T00:20:58;0.90;;;0.80;;
3975;SDS011;2002;48.812;9.180;2022-09-09T00:23:32;0.70;;;0.60;;
3975;SDS011;2002;48.812;9.180;2022-09-09T00:26:04;1.10;;;1.00;;
3975;SDS011;2002;48.812;9.180;2022-09-09T00:28:45;1.20;;;0.60;;
3975;SDS011;2002;48.812;9.180;2022-09-09T00:31:34;0.60;;;0.50;;
3975;SDS011;2002;48.812;9.180;2022-09-09T00:36:38;0.60;;;0.50;;
3975;SDS011;2002;48.812;9.180;2022-09-09T00:39:06;0.67;;;0.60;;
3975;SDS011;2002;48.812;9.180;2022-09-09T00:44:34;0.90;;;0.77;;
3975;SDS011;2002;48.812;9.180;2022-09-09T00:50:03;1.27;;;0.90;;
3975;SDS011;2002;48.812;9.180;2022-09-09T00:56:01;0.73;;;0.63;;
3975;SDS011;2002;48.812;9.180;2022-09-09T00:58:40;1.17;;;0.60;;
3975;SDS011;2002;48.812;9.180;2022-09-09T01:01:18;0.80;;;0.60;;
3975;SDS011;2002;48.812;9.180;2022-09-09T01:06:20;0.80;;;0.70;;
3975;SDS011;2002;48.812;9.180;2022-09-09T01:11:49;0.80;;;0.80;;
3975;SDS011;2002;48.812;9.180;2022-09-09T01:16:50;0.90;;;0.80;;
3975;SDS011;2002;48.812;9.180;2022-09-09T01:28:03;1.43;;;0.80;;
3975;SDS011;2002;48.812;9.180;2022-09-09T01:30:33;1.30;;;0.90;;
3975;SDS011;2002;48.812;9.180;2022-09-09T01:33:03;0.97;;;0.70;;
3975;SDS011;2002;48.812;9.180;2022-09-09T01:38:00;0.90;;;0.90;;
3975;SDS011;2002;48.812;9.180;2022-09-09T01:40:25;1.10;;;0.67;;
3975;SDS011;2002;48.812;9.180;2022-09-09T01:42:51;2.90;;;0.80;;
3975;SDS011;2002;48.812;9.180;2022-09-09T01:45:18;0.80;;;0.70;;
3975;SDS011;2002;48.812;9.180;2022-09-09T01:47:44;0.80;;;0.67;;
3975;SDS011;2002;48.812;9.180;2022-09-09T01:50:11;0.80;;;0.70;;
3975;SDS011;2002;48.812;9.180;2022-09-09T01:52:39;1.17;;;0.70;;
3975;SDS011;2002;48.812;9.180;2022-09-09T01:55:05;0.67;;;0.63;;
3975;SDS011;2002;48.812;9.180;2022-09-09T02:00:35;1.13;;;0.60;;
3975;SDS011;2002;48.812;9.180;2022-09-09T02:03:21;1.00;;;0.87;;
3975;SDS011;2002;48.812;9.180;2022-09-09T02:08:28;1.20;;;0.60;;
3975;SDS011;2002;48.812;9.180;2022-09-09T02:13:32;0.70;;;0.60;;
3975;SDS011;2002;48.812;9.180;2022-09-09T02:16:00;0.70;;;0.63;;
3975;SDS011;2002;48.812;9.180;2022-09-09T02:18:39;0.80;;;0.80;;
3975;SDS011;2002;48.812;9.180;2022-09-09T02:21:10;0.80;;;0.80;;
3975;SDS011;2002;48.812;9.180;2022-09-09T02:23:38;1.10;;;0.53;;
3975;SDS011;2002;48.812;9.180;2022-09-09T02:26:07;0.60;;;0.60;;
3975;SDS011;2002;48.812;9.180;2022-09-09T02:28:35;0.60;;;0.50;;
3975;SDS011;2002;48.812;9.180;2022-09-09T02:31:03;0.70;;;0.70;;
3975;SDS011;2002;48.812;9.180;2022-09-09T02:33:30;0.90;;;0.73;;
3975;SDS011;2002;48.812;9.180;2022-09-09T02:36:02;1.43;;;0.70;;
3975;SDS011;2002;48.812;9.180;2022-09-09T02:38:32;1.50;;;0.90;;
3975;SDS011;2002;48.812;9.180;2022-09-09T02:41:01;0.87;;;0.80;;
3975;SDS011;2002;48.812;9.180;2022-09-09T02:43:33;0.90;;;0.60;;
3975;SDS011;2002;48.812;9.180;2022-09-09T02:49:12;0.77;;;0.70;;
3975;SDS011;2002;48.812;9.180;2022-09-09T02:54:30;1.20;;;0.87;;
3975;SDS011;2002;48.812;9.180;2022-09-09T02:57:05;0.80;;;0.80;;
3975;SDS011;2002;48.812;9.180;2022-09-09T02:59:36;0.80;;;0.80;;
3975;SDS011;2002;48.812;9.180;2022-09-09T03:02:02;1.13;;;0.80;;
3975;SDS011;2002;48.812;9.180;2022-09-09T03:04:28;0.93;;;0.70;;
3975;SDS011;2002;48.812;9.180;2022-09-09T03:06:56;0.90;;;0.80;;
3975;SDS011;2002;48.812;9.180;2022-09-09T03:09:22;1.13;;;1.03;;
3975;SDS011;2002;48.812;9.180;2022-09-09T03:11:48;1.30;;;0.80;;
3975;SDS011;2002;48.812;9.180;2022-09-09T03:14:14;1.00;;;0.80;;
3975;SDS011;2002;48.812;9.180;2022-09-09T03:16:40;1.27;;;0.60;;
3975;SDS011;2002;48.812;9.180;2022-09-09T03:19:07;1.07;;;0.80;;
3975;SDS011;2002;48.812;9.180;2022-09-09T03:21:33;1.40;;;0.90;;
3975;SDS011;2002;48.812;9.180;2022-09-09T03:23:59;0.90;;;0.90;;
3975;SDS011;2002;48.812;9.180;2022-09-09T03:26:25;1.53;;;0.70;;
3975;SDS011;2002;48.812;9.180;2022-09-09T03:28:50;1.10;;;0.90;;
3975;SDS011;2002;48.812;9.180;2022-09-09T03:31:17;0.80;;;0.70;;
3975;SDS011;2002;48.812;9.180;2022-09-09T03:33:43;0.60;;;0.60;;
3975;SDS011;2002;48.812;9.180;2022-09-09T03:36:08;1.00;;;0.87;;
3975;SDS011;2002;48.812;9.180;2022-09-09T03:38:34;0.70;;;0.70;;
3975;SDS011;2002;48.812;9.180;2022-09-09T03:41:00;0.80;;;0.70;;
3975;SDS011;2002;48.812;9.180;2022-09-09T03:43:26;0.70;;;0.70;;
3975;SDS011;2002;48.812;9.180;2022-09-09T03:45:53;1.20;;;1.00;;
3975;SDS011;2002;48.812;9.180;2022-09-09T03:48:21;1.10;;;0.50;;
3975;SDS011;2002;48.812;9.180;2022-09-09T03:50:48;1.20;;;0.67;;
3975;SDS011;2002;48.812;9.180;2022-09-09T03:53:16;1.47;;;0.80;;
3975;SDS011;2002;48.812;9.180;2022-09-09T03:55:46;1.63;;;1.10;;
3975;SDS011;2002;48.812;9.180;2022-09-09T03:58:19;1.47;;;0.90;;
3975;SDS011;2002;48.812;9.180;2022-09-09T04:00:56;1.00;;;0.87;;
3975;SDS011;2002;48.812;9.180;2022-09-09T04:03:23;0.83;;;0.80;;
3975;SDS011;2002;48.812;9.180;2022-09-09T04:05:50;0.70;;;0.67;;
3975;SDS011;2002;48.812;9.180;2022-09-09T04:08:17;0.70;;;0.67;;
3975;SDS011;2002;48.812;9.180;2022-09-09T04:10:44;0.70;;;0.60;;
3975;SDS011;2002;48.812;9.180;2022-09-09T04:13:11;1.10;;;0.80;;
3975;SDS011;2002;48.812;9.180;2022-09-09T04:15:39;1.17;;;0.80;;
3975;SDS011;2002;48.812;9.180;2022-09-09T04:18:04;0.90;;;0.80;;
3975;SDS011;2002;48.812;9.180;2022-09-09T04:20:31;1.00;;;0.90;;
3975;SDS011;2002;48.812;9.180;2022-09-09T04:22:56;0.60;;;0.50;;
3975;SDS011;2002;48.812;9.180;2022-09-09T04:25:22;0.60;;;0.43;;
3975;SDS011;2002;48.812;9.180;2022-09-09T04:27:47;1.00;;;0.60;;
3975;SDS011;2002;48.812;9.180;2022-09-09T04:30:18;0.80;;;0.70;;
3975;SDS011;2002;48.812;9.180;2022-09-09T04:32:43;1.20;;;0.80;;
3975;SDS011;2002;48.812;9.180;2022-09-09T04:35:09;1.13;;;0.70;;
3975;SDS011;2002;48.812;9.180;2022-09-09T04:37:34;1.00;;;0.67;;
3975;SDS011;2002;48.812;9.180;2022-09-09T04:40:00;0.83;;;0.80;;
3975;SDS011;2002;48.812;9.180;2022-09-09T04:42:27;0.90;;;0.60;;
3975;SDS011;2002;48.812;9.180;2022-09-09T04:44:52;1.10;;;0.70;;
3975;SDS011;2002;48.812;9.180;2022-09-09T04:47:19;0.77;;;0.53;;
3975;SDS011;2002;48.812;9.180;2022-09-09T04:49:44;0.90;;;0.80;;
3975;SDS011;2002;48.812;9.180;2022-09-09T04:52:10;0.97;;;0.87;;
3975;SDS011;2002;48.812;9.180;2022-09-09T04:54:36;0.83;;;0.63;;
3975;SDS011;2002;48.812;9.180;2022-09-09T04:57:01;0.77;;;0.70;;
3975;SDS011;2002;48.812;9.180;2022-09-09T04:59:27;0.70;;;0.70;;
3975;SDS011;2002;48.812;9.180;2022-09-09T05:01:52;0.90;;;0.80;;
3975;SDS011;2002;48.812;9.180;2022-09-09T05:04:20;0.90;;;0.80;;
3975;SDS011;2002;48.812;9.180;2022-09-09T05:06:46;1.50;;;0.73;;
3975;SDS011;2002;48.812;9.180;2022-09-09T05:09:11;0.60;;;0.60;;
3975;SDS011;2002;48.812;9.180;2022-09-09T05:11:37;0.60;;;0.50;;
3975;SDS011;2002;48.812;9.180;2022-09-09T05:14:03;1.13;;;0.87;;
3975;SDS011;2002;48.812;9.180;2022-09-09T05:16:29;0.83;;;0.77;;
3975;SDS011;2002;48.812;9.180;2022-09-09T05:18:55;1.00;;;0.70;;
3975;SDS011;2002;48.812;9.180;2022-09-09T05:21:22;0.80;;;0.60;;
3975;SDS011;2002;48.812;9.180;2022-09-09T05:23:51;0.60;;;0.60;;
3975;SDS011;2002;48.812;9.180;2022-09-09T05:26:17;0.97;;;0.70;;
3975;SDS011;2002;48.812;9.180;2022-09-09T05:28:45;1.30;;;0.90;;
3975;SDS011;2002;48.812;9.180;2022-09-09T05:31:12;0.63;;;0.63;;
3975;SDS011;2002;48.812;9.180;2022-09-09T05:33:39;0.83;;;0.60;;
3975;SDS011;2002;48.812;9.180;2022-09-09T05:36:07;0.77;;;0.50;;
3975;SDS011;2002;48.812;9.180;2022-09-09T05:38:38;0.83;;;0.73;;
3975;SDS011;2002;48.812;9.180;2022-09-09T05:41:04;0.70;;;0.70;;
3975;SDS011;2002;48.812;9.180;2022-09-09T05:43:30;0.60;;;0.60;;
3975;SDS011;2002;48.812;9.180;2022-09-09T05:46:01;0.80;;;0.63;;
3975;SDS011;2002;48.812;9.180;2022-09-09T05:48:33;1.10;;;0.90;;
3975;SDS011;2002;48.812;9.180;2022-09-09T05:51:00;1.27;;;0.90;;
3975;SDS011;2002;48.812;9.180;2022-09-09T05:53:27;0.60;;;0.60;;
3975;SDS011;2002;48.812;9.180;2022-09-09T05:56:00;0.80;;;0.60;;
3975;SDS011;2002;48.812;9.180;2022-09-09T05:58:28;1.40;;;0.90;;
3975;SDS011;2002;48.812;9.180;2022-09-09T06:01:00;0.63;;;0.60;;
3975;SDS011;2002;48.812;9.180;2022-09-09T06:03:29;1.07;;;0.90;;
3975;SDS011;2002;48.812;9.180;2022-09-09T06:05:58;0.70;;;0.57;;
3975;SDS011;2002;48.812;9.180;2022-09-09T06:08:25;1.23;;;0.80;;
3975;SDS011;2002;48.812;9.180;2022-09-09T06:10:50;1.00;;;0.90;;
3975;SDS011;2002;48.812;9.180;2022-09-09T06:13:17;0.87;;;0.70;;
3975;SDS011;2002;48.812;9.180;2022-09-09T06:15:52;1.33;;;0.80;;
3975;SDS011;2002;48.812;9.180;2022-09-09T06:18:18;0.70;;;0.57;;
3975;SDS011;2002;48.812;9.180;2022-09-09T06:20:57;0.90;;;0.80;;
3975;SDS011;2002;48.812;9.180;2022-09-09T06:23:24;0.90;;;0.80;;
3975;SDS011;2002;48.812;9.180;2022-09-09T06:25:50;1.10;;;1.00;;
3975;SDS011;2002;48.812;9.180;2022-09-09T06:28:16;0.57;;;0.57;;
3975;SDS011;2002;48.812;9.180;2022-09-09T06:30:42;1.47;;;1.37;;
3975;SDS011;2002;48.812;9.180;2022-09-09T06:33:08;0.90;;;0.73;;
3975;SDS011;2002;48.812;9.180;2022-09-09T06:35:34;0.80;;;0.63;;
3975;SDS011;2002;48.812;9.180;2022-09-09T06:38:00;1.07;;;0.90;;
3975;SDS011;2002;48.812;9.180;2022-09-09T06:40:25;0.80;;;0.60;;
3975;SDS011;2002;48.812;9.180;2022-09-09T06:42:51;0.80;;;0.63;;
3975;SDS011;2002;48.812;9.180;2022-09-09T06:45:16;1.03;;;0.80;;
3975;SDS011;2002;48.812;9.180;2022-09-09T06:47:43;0.70;;;0.70;;
3975;SDS011;2002;48.812;9.180;2022-09-09T06:50:08;0.93;;;0.73;;
3975;SDS011;2002;48.812;9.180;2022-09-09T06:52:36;0.60;;;0.50;;
3975;SDS011;2002;48.812;9.180;2022-09-09T06:55:02;0.80;;;0.60;;
3975;SDS011;2002;48.812;9.180;2022-09-09T06:57:28;1.17;;;0.80;;
3975;SDS011;2002;48.812;9.180;2022-09-09T06:59:53;0.90;;;0.77;;
3975;SDS011;2002;48.812;9.180;2022-09-09T07:02:19;0.90;;;0.80;;
3975;SDS011;2002;48.812;9.180;2022-09-09T07:04:44;1.03;;;0.93;;
3975;SDS011;2002;48.812;9.180;2022-09-09T07:07:10;0.77;;;0.73;;
3975;SDS011;2002;48.812;9.180;2022-09-09T07:09:38;0.90;;;0.70;;
3975;SDS011;2002;48.812;9.180;2022-09-09T07:12:04;0.90;;;0.60;;
3975;SDS011;2002;48.812;9.180;2022-09-09T07:14:31;0.63;;;0.63;;
3975;SDS011;2002;48.812;9.180;2022-09-09T07:16:57;1.27;;;0.70;;
3975;SDS011;2002;48.812;9.180;2022-09-09T07:19:23;0.70;;;0.60;;
3975;SDS011;2002;48.812;9.180;2022-09-09T07:21:48;1.33;;;0.80;;
3975;SDS011;2002;48.812;9.180;2022-09-09T07:24:14;0.73;;;0.70;;
3975;SDS011;2002;48.812;9.180;2022-09-09T07:26:40;1.33;;;0.60;;
3975;SDS011;2002;48.812;9.180;2022-09-09T07:29:06;0.70;;;0.70;;
3975;SDS011;2002;48.812;9.180;2022-09-09T07:31:34;1.40;;;0.90;;
3975;SDS011;2002;48.812;9.180;2022-09-09T07:34:01;0.70;;;0.53;;
3975;SDS011;2002;48.812;9.180;2022-09-09T07:36:28;1.03;;;0.70;;
3975;SDS011;2002;48.812;9.180;2022-09-09T07:38:56;1.10;;;0.80;;
3975;SDS011;2002;48.812;9.180;2022-09-09T07:41:27;1.10;;;0.60;;
3975;SDS011;2002;48.812;9.180;2022-09-09T07:43:59;0.80;;;0.60;;
3975;SDS011;2002;48.812;9.180;2022-09-09T07:46:28;1.57;;;0.60;;
3975;SDS011;2002;48.812;9.180;2022-09-09T07:48:55;0.70;;;0.60;;
3975;SDS011;2002;48.812;9.180;2022-09-09T07:53:54;1.27;;;0.77;;
3975;SDS011;2002;48.812;9.180;2022-09-09T07:56:23;1.43;;;0.63;;
3975;SDS011;2002;48.812;9.180;2022-09-09T07:58:50;1.47;;;0.90;;
3975;SDS011;2002;48.812;9.180;2022-09-09T08:03:45;0.90;;;0.50;;
3975;SDS011;2002;48.812;9.180;2022-09-09T08:06:12;1.70;;;0.80;;
3975;SDS011;2002;48.812;9.180;2022-09-09T08:08:39;0.67;;;0.67;;
3975;SDS011;2002;48.812;9.180;2022-09-09T08:11:10;2.20;;;0.77;;
3975;SDS011;2002;48.812;9.180;2022-09-09T08:13:38;2.50;;;0.90;;
3975;SDS011;2002;48.812;9.180;2022-09-09T08:16:05;1.07;;;0.97;;
3975;SDS011;2002;48.812;9.180;2022-09-09T08:18:32;1.07;;;0.90;;
3975;SDS011;2002;48.812;9.180;2022-09-09T08:21:04;1.10;;;0.80;;
3975;SDS011;2002;48.812;9.180;2022-09-09T08:23:40;1.17;;;0.80;;
3975;SDS011;2002;48.812;9.180;2022-09-09T08:26:09;3.03;;;0.87;;
3975;SDS011;2002;48.812;9.180;2022-09-09T08:28:36;4.00;;;0.70;;
3975;SDS011;2002;48.812;9.180;2022-09-09T08:31:06;0.80;;;0.60;;
3975;SDS011;2002;48.812;9.180;2022-09-09T08:33:32;1.00;;;0.77;;
3975;SDS011;2002;48.812;9.180;2022-09-09T08:35:58;0.80;;;0.70;;
3975;SDS011;2002;48.812;9.180;2022-09-09T08:38:24;1.30;;;0.87;;
3975;SDS011;2002;48.812;9.180;2022-09-09T08:40:49;2.17;;;0.70;;
3975;SDS011;2002;48.812;9.180;2022-09-09T08:43:24;2.20;;;0.93;;
3975;SDS011;2002;48.812;9.180;2022-09-09T08:45:58;1.30;;;1.00;;
3975;SDS011;2002;48.812;9.180;2022-09-09T08:51:09;1.07;;;0.80;;
3975;SDS011;2002;48.812;9.180;2022-09-09T08:53:40;0.80;;;0.80;;
3975;SDS011;2002;48.812;9.180;2022-09-09T08:56:12;0.80;;;0.70;;
3975;SDS011;2002;48.812;9.180;2022-09-09T08:58:45;1.13;;;0.63;;
3975;SDS011;2002;48.812;9.180;2022-09-09T09:07:19;0.90;;;0.77;;
3975;SDS011;2002;48.812;9.180;2022-09-09T09:12:32;4.00;;;0.70;;
3975;SDS011;2002;48.812;9.180;2022-09-09T09:15:05;1.00;;;0.60;;
3975;SDS011;2002;48.812;9.180;2022-09-09T09:17:42;0.80;;;0.60;;
3975;SDS011;2002;48.812;9.180;2022-09-09T09:20:11;0.67;;;0.60;;
3975;SDS011;2002;48.812;9.180;2022-09-09T09:22:49;1.07;;;0.80;;
3975;SDS011;2002;48.812;9.180;2022-09-09T09:25:23;1.23;;;0.63;;
3975;SDS011;2002;48.812;9.180;2022-09-09T09:28:07;1.63;;;1.00;;
3975;SDS011;2002;48.812;9.180;2022-09-09T09:30:49;1.23;;;0.70;;
3975;SDS011;2002;48.812;9.180;2022-09-09T09:33:20;1.23;;;0.93;;
3975;SDS011;2002;48.812;9.180;2022-09-09T09:35:52;1.13;;;0.80;;
3975;SDS011;2002;48.812;9.180;2022-09-09T09:38:22;1.63;;;1.00;;
3975;SDS011;2002;48.812;9.180;2022-09-09T09:40:50;1.60;;;0.93;;
3975;SDS011;2002;48.812;9.180;2022-09-09T09:43:29;0.97;;;0.90;;
3975;SDS011;2002;48.812;9.180;2022-09-09T09:45:55;1.40;;;1.30;;
3975;SDS011;2002;48.812;9.180;2022-09-09T09:48:22;0.80;;;0.63;;
3975;SDS011;2002;48.812;9.180;2022-09-09T09:50:49;2.93;;;0.90;;
3975;SDS011;2002;48.812;9.180;2022-09-09T09:53:26;2.00;;;0.93;;
3975;SDS011;2002;48.812;9.180;2022-09-09T09:55:58;1.27;;;0.70;;
3975;SDS011;2002;48.812;9.180;2022-09-09T09:58:26;0.90;;;0.90;;
3975;SDS011;2002;48.812;9.180;2022-09-09T10:00:56;1.67;;;0.83;;
3975;SDS011;2002;48.812;9.180;2022-09-09T10:03:26;1.80;;;0.93;;
3975;SDS011;2002;48.812;9.180;2022-09-09T10:05:52;1.10;;;1.10;;
3975;SDS011;2002;48.812;9.180;2022-09-09T10:08:19;1.10;;;0.80;;
3975;SDS011;2002;48.812;9.180;2022-09-09T10:19:35;1.30;;;0.80;;
3975;SDS011;2002;48.812;9.180;2022-09-09T10:35:21;0.70;;;0.70;;
3975;SDS011;2002;48.812;9.180;2022-09-09T10:46:10;1.10;;;0.90;;
3975;SDS011;2002;48.812;9.180;2022-09-09T10:57:17;1.53;;;0.70;;
3975;SDS011;2002;48.812;9.180;2022-09-09T10:59:47;1.93;;;0.80;;
3975;SDS011;2002;48.812;9.180;2022-09-09T11:02:35;0.93;;;0.73;;
3975;SDS011;2002;48.812;9.180;2022-09-09T11:05:06;1.10;;;0.83;;
3975;SDS011;2002;48.812;9.180;2022-09-09T11:08:18;1.10;;;0.90;;
3975;SDS011;2002;48.812;9.180;2022-09-09T11:10:43;0.80;;;0.70;;
3975;SDS011;2002;48.812;9.180;2022-09-09T11:16:00;1.57;;;0.90;;
3975;SDS011;2002;48.812;9.180;2022-09-09T11:18:49;2.20;;;1.00;;
3975;SDS011;2002;48.812;9.180;2022-09-09T11:21:26;1.20;;;0.87;;
3975;SDS011;2002;48.812;9.180;2022-09-09T11:24:00;1.67;;;0.70;;
3975;SDS011;2002;48.812;9.180;2022-09-09T11:26:38;0.70;;;0.60;;
3975;SDS011;2002;48.812;9.180;2022-09-09T11:42:05;1.80;;;0.90;;
3975;SDS011;2002;48.812;9.180;2022-09-09T11:44:33;1.60;;;1.00;;
3975;SDS011;2002;48.812;9.180;2022-09-09T11:46:59;1.37;;;0.77;;
3975;SDS011;2002;48.812;9.180;2022-09-09T11:49:26;0.90;;;0.80;;
3975;SDS011;2002;48.812;9.180;2022-09-09T11:52:11;1.87;;;0.87;;
3975;SDS011;2002;48.812;9.180;2022-09-09T11:54:46;1.07;;;0.70;;
3975;SDS011;2002;48.812;9.180;2022-09-09T11:57:17;1.00;;;0.73;;
3975;SDS011;2002;48.812;9.180;2022-09-09T11:59:51;1.87;;;0.83;;
3975;SDS011;2002;48.812;9.180;2022-09-09T12:02:27;0.90;;;0.80;;
3975;SDS011;2002;48.812;9.180;2022-09-09T12:05:03;0.70;;;0.70;;
3975;SDS011;2002;48.812;9.180;2022-09-09T12:07:48;0.70;;;0.60;;
3975;SDS011;2002;48.812;9.180;2022-09-09T12:10:26;1.60;;;1.10;;
3975;SDS011;2002;48.812;9.180;2022-09-09T12:12:53;1.33;;;0.63;;
3975;SDS011;2002;48.812;9.180;2022-09-09T12:17:54;1.17;;;0.77;;
3975;SDS011;2002;48.812;9.180;2022-09-09T12:20:24;1.63;;;0.83;;
3975;SDS011;2002;48.812;9.180;2022-09-09T12:22:59;2.10;;;0.73;;
3975;SDS011;2002;48.812;9.180;2022-09-09T12:25:37;0.60;;;0.53;;
3975;SDS011;2002;48.812;9.180;2022-09-09T12:30:47;0.70;;;0.60;;
3975;SDS011;2002;48.812;9.180;2022-09-09T12:33:36;1.20;;;0.70;;
3975;SDS011;2002;48.812;9.180;2022-09-09T12:36:08;1.97;;;1.27;;
3975;SDS011;2002;48.812;9.180;2022-09-09T12:38:39;1.00;;;0.90;;
3975;SDS011;2002;48.812;9.180;2022-09-09T12:41:05;1.00;;;0.70;;
3975;SDS011;2002;48.812;9.180;2022-09-09T12:43:31;0.90;;;0.77;;
3975;SDS011;2002;48.812;9.180;2022-09-09T12:46:03;2.70;;;1.00;;
3975;SDS011;2002;48.812;9.180;2022-09-09T12:48:35;1.10;;;0.97;;
3975;SDS011;2002;48.812;9.180;2022-09-09T12:51:14;1.60;;;0.80;;
3975;SDS011;2002;48.812;9.180;2022-09-09T12:53:52;2.10;;;0.90;;
3975;SDS011;2002;48.812;9.180;2022-09-09T12:56:19;1.33;;;0.70;;
3975;SDS011;2002;48.812;9.180;2022-09-09T12:58:47;1.40;;;0.50;;
3975;SDS011;2002;48.812;9.180;2022-09-09T13:01:24;1.90;;;0.70;;
3975;SDS011;2002;48.812;9.180;2022-09-09T13:03:49;2.07;;;0.60;;
3975;SDS011;2002;48.812;9.180;2022-09-09T13:06:20;1.00;;;0.90;;
3975;SDS011;2002;48.812;9.180;2022-09-09T13:08:50;1.70;;;1.00;;
3975;SDS011;2002;48.812;9.180;2022-09-09T13:11:19;2.22;;;0.70;;
3975;SDS011;2002;48.812;9.180;2022-09-09T13:14:04;0.90;;;0.80;;
3975;SDS011;2002;48.812;9.180;2022-09-09T13:16:32;0.70;;;0.60;;
3975;SDS011;2002;48.812;9.180;2022-09-09T13:19:00;0.90;;;0.70;;
3975;SDS011;2002;48.812;9.180;2022-09-09T13:21:34;1.47;;;0.90;;
3975;SDS011;2002;48.812;9.180;2022-09-09T13:24:02;0.70;;;0.60;;
3975;SDS011;2002;48.812;9.180;2022-09-09T13:26:29;1.00;;;0.70;;
3975;SDS011;2002;48.812;9.180;2022-09-09T13:28:55;1.27;;;0.90;;
3975;SDS011;2002;48.812;9.180;2022-09-09T13:31:43;1.53;;;0.80;;
3975;SDS011;2002;48.812;9.180;2022-09-09T13:34:13;1.40;;;0.77;;
3975;SDS011;2002;48.812;9.180;2022-09-09T13:36:52;0.90;;;0.77;;
3975;SDS011;2002;48.812;9.180;2022-09-09T13:39:27;0.83;;;0.57;;
3975;SDS011;2002;48.812;9.180;2022-09-09T13:41:53;0.80;;;0.80;;
3975;SDS011;2002;48.812;9.180;2022-09-09T13:44:24;1.30;;;1.10;;
3975;SDS011;2002;48.812;9.180;2022-09-09T13:52:48;0.63;;;0.50;;
3975;SDS011;2002;48.812;9.180;2022-09-09T13:55:16;1.17;;;0.90;;
3975;SDS011;2002;48.812;9.180;2022-09-09T14:00:31;1.00;;;0.87;;
3975;SDS011;2002;48.812;9.180;2022-09-09T14:02:58;1.03;;;0.70;;
3975;SDS011;2002;48.812;9.180;2022-09-09T14:05:26;0.80;;;0.80;;
3975;SDS011;2002;48.812;9.180;2022-09-09T14:07:53;1.43;;;0.80;;
3975;SDS011;2002;48.812;9.180;2022-09-09T14:10:18;1.00;;;0.70;;
3975;SDS011;2002;48.812;9.180;2022-09-09T14:12:44;1.03;;;0.70;;
3975;SDS011;2002;48.812;9.180;2022-09-09T14:15:11;1.27;;;0.80;;
3975;SDS011;2002;48.812;9.180;2022-09-09T14:17:37;2.40;;;0.70;;
3975;SDS011;2002;48.812;9.180;2022-09-09T14:20:03;1.33;;;0.70;;
3975;SDS011;2002;48.812;9.180;2022-09-09T14:22:34;0.90;;;0.80;;
3975;SDS011;2002;48.812;9.180;2022-09-09T14:25:00;1.50;;;0.80;;
3975;SDS011;2002;48.812;9.180;2022-09-09T14:27:26;2.33;;;0.70;;
3975;SDS011;2002;48.812;9.180;2022-09-09T14:29:52;1.63;;;0.83;;
3975;SDS011;2002;48.812;9.180;2022-09-09T14:32:18;5.80;;;2.27;;
3975;SDS011;2002;48.812;9.180;2022-09-09T14:34:44;4.50;;;1.87;;
3975;SDS011;2002;48.812;9.180;2022-09-09T14:37:10;1.13;;;0.80;;
3975;SDS011;2002;48.812;9.180;2022-09-09T14:39:35;4.83;;;1.87;;
3975;SDS011;2002;48.812;9.180;2022-09-09T14:42:01;3.20;;;1.60;;
3975;SDS011;2002;48.812;9.180;2022-09-09T14:44:27;3.63;;;1.83;;
3975;SDS011;2002;48.812;9.180;2022-09-09T14:46:53;5.53;;;2.30;;
3975;SDS011;2002;48.812;9.180;2022-09-09T14:49:19;2.73;;;1.83;;
3975;SDS011;2002;48.812;9.180;2022-09-09T14:51:44;3.97;;;2.23;;
3975;SDS011;2002;48.812;9.180;2022-09-09T14:54:10;3.13;;;1.60;;
3975;SDS011;2002;48.812;9.180;2022-09-09T14:56:36;2.57;;;1.50;;
3975;SDS011;2002;48.812;9.180;2022-09-09T14:59:02;5.07;;;2.20;;
3975;SDS011;2002;48.812;9.180;2022-09-09T15:01:28;4.67;;;1.80;;
3975;SDS011;2002;48.812;9.180;2022-09-09T15:03:58;2.77;;;2.00;;
3975;SDS011;2002;48.812;9.180;2022-09-09T15:06:26;3.70;;;1.97;;
3975;SDS011;2002;48.812;9.180;2022-09-09T15:08:54;3.60;;;1.90;;
3975;SDS011;2002;48.812;9.180;2022-09-09T15:11:23;4.10;;;1.67;;
3975;SDS011;2002;48.812;9.180;2022-09-09T15:13:50;2.27;;;1.17;;
3975;SDS011;2002;48.812;9.180;2022-09-09T15:16:20;2.30;;;1.40;;
3975;SDS011;2002;48.812;9.180;2022-09-09T15:18:50;5.00;;;1.63;;
3975;SDS011;2002;48.812;9.180;2022-09-09T15:21:17;4.20;;;1.57;;
3975;SDS011;2002;48.812;9.180;2022-09-09T15:23:44;2.03;;;1.80;;
3975;SDS011;2002;48.812;9.180;2022-09-09T15:26:10;3.10;;;1.80;;
3975;SDS011;2002;48.812;9.180;2022-09-09T15:28:39;3.40;;;1.50;;
3975;SDS011;2002;48.812;9.180;2022-09-09T15:31:08;4.23;;;1.60;;
3975;SDS011;2002;48.812;9.180;2022-09-09T15:33:37;1.83;;;1.23;;
3975;SDS011;2002;48.812;9.180;2022-09-09T15:36:12;1.93;;;1.47;;
3975;SDS011;2002;48.812;9.180;2022-09-09T15:38:48;2.80;;;1.50;;
3975;SDS011;2002;48.812;9.180;2022-09-09T15:41:14;3.33;;;2.27;;
3975;SDS011;2002;48.812;9.180;2022-09-09T15:43:48;4.60;;;3.50;;
3975;SDS011;2002;48.812;9.180;2022-09-09T15:49:07;3.77;;;1.50;;
3975;SDS011;2002;48.812;9.180;2022-09-09T15:51:34;5.03;;;1.70;;
3975;SDS011;2002;48.812;9.180;2022-09-09T15:54:02;2.87;;;1.40;;
3975;SDS011;2002;48.812;9.180;2022-09-09T15:56:28;2.20;;;1.70;;
3975;SDS011;2002;48.812;9.180;2022-09-09T15:58:57;2.80;;;1.60;;
3975;SDS011;2002;48.812;9.180;2022-09-09T16:01:25;2.43;;;1.40;;
3975;SDS011;2002;48.812;9.180;2022-09-09T16:03:51;3.40;;;1.20;;
3975;SDS011;2002;48.812;9.180;2022-09-09T16:06:18;1.90;;;1.23;;
3975;SDS011;2002;48.812;9.180;2022-09-09T16:08:48;2.73;;;1.20;;
3975;SDS011;2002;48.812;9.180;2022-09-09T16:11:17;2.70;;;1.10;;
3975;SDS011;2002;48.812;9.180;2022-09-09T16:13:47;2.00;;;1.40;;
3975;SDS011;2002;48.812;9.180;2022-09-09T16:16:15;2.73;;;1.47;;
3975;SDS011;2002;48.812;9.180;2022-09-09T16:18:45;2.07;;;1.40;;
3975;SDS011;2002;48.812;9.180;2022-09-09T16:21:16;3.17;;;1.60;;
3975;SDS011;2002;48.812;9.180;2022-09-09T16:23:44;1.37;;;1.00;;
3975;SDS011;2002;48.812;9.180;2022-09-09T16:26:10;1.83;;;1.30;;
3975;SDS011;2002;48.812;9.180;2022-09-09T16:28:37;3.07;;;1.60;;
3975;SDS011;2002;48.812;9.180;2022-09-09T16:31:04;1.37;;;1.23;;
3975;SDS011;2002;48.812;9.180;2022-09-09T16:33:31;2.27;;;1.73;;
3975;SDS011;2002;48.812;9.180;2022-09-09T16:35:56;3.53;;;1.37;;
3975;SDS011;2002;48.812;9.180;2022-09-09T16:38:22;2.00;;;1.50;;
3975;SDS011;2002;48.812;9.180;2022-09-09T16:40:47;1.30;;;1.20;;
3975;SDS011;2002;48.812;9.180;2022-09-09T16:43:15;2.03;;;1.30;;
3975;SDS011;2002;48.812;9.180;2022-09-09T16:45:44;2.17;;;1.00;;
3975;SDS011;2002;48.812;9.180;2022-09-09T16:48:10;2.07;;;1.30;;
3975;SDS011;2002;48.812;9.180;2022-09-09T16:50:36;1.63;;;1.20;;
3975;SDS011;2002;48.812;9.180;2022-09-09T16:53:02;1.13;;;0.90;;
3975;SDS011;2002;48.812;9.180;2022-09-09T16:55:28;1.33;;;1.00;;
3975;SDS011;2002;48.812;9.180;2022-09-09T16:57:54;2.43;;;1.00;;
3975;SDS011;2002;48.812;9.180;2022-09-09T17:00:20;2.07;;;1.10;;
3975;SDS011;2002;48.812;9.180;2022-09-09T17:02:48;1.97;;;1.13;;
3975;SDS011;2002;48.812;9.180;2022-09-09T17:05:13;1.57;;;0.83;;
3975;SDS011;2002;48.812;9.180;2022-09-09T17:07:39;2.30;;;1.13;;
3975;SDS011;2002;48.812;9.180;2022-09-09T17:10:05;1.53;;;1.10;;
3975;SDS011;2002;48.812;9.180;2022-09-09T17:12:32;2.17;;;1.00;;
3975;SDS011;2002;48.812;9.180;2022-09-09T17:14:58;1.83;;;1.00;;
3975;SDS011;2002;48.812;9.180;2022-09-09T17:17:25;2.30;;;1.20;;
3975;SDS011;2002;48.812;9.180;2022-09-09T17:19:51;1.07;;;0.97;;
3975;SDS011;2002;48.812;9.180;2022-09-09T17:22:17;1.20;;;0.77;;
3975;SDS011;2002;48.812;9.180;2022-09-09T17:24:43;2.13;;;1.17;;
3975;SDS011;2002;48.812;9.180;2022-09-09T17:27:09;1.33;;;1.00;;
3975;SDS011;2002;48.812;9.180;2022-09-09T17:29:34;3.03;;;1.43;;
3975;SDS011;2002;48.812;9.180;2022-09-09T17:32:03;1.90;;;1.00;;
3975;SDS011;2002;48.812;9.180;2022-09-09T17:34:30;2.00;;;1.00;;
3975;SDS011;2002;48.812;9.180;2022-09-09T17:36:56;1.80;;;0.80;;
3975;SDS011;2002;48.812;9.180;2022-09-09T17:39:21;2.43;;;0.83;;
3975;SDS011;2002;48.812;9.180;2022-09-09T17:41:47;1.37;;;0.90;;
3975;SDS011;2002;48.812;9.180;2022-09-09T17:44:13;2.80;;;1.40;;
3975;SDS011;2002;48.812;9.180;2022-09-09T17:46:40;2.00;;;0.90;;